Terminal Aerodrome Forecast
Issued by NWS Louisville, KY

Home | Current Version | Previous Version | Text Only | Print | Product List | Glossary On
Versions: 1 2 3 4 5 6 7 8 9 10 11 12 13 14
504
FTUS43 KLMK 270529
TAFSDF
TAF
KSDF 270529Z 2706/2812 16004KT P6SM BKN150
     FM270900 17004KT 6SM BR VCSH BKN070
     FM271300 20011KT P6SM SCT050
     FM280000 16005KT P6SM BKN250=

USA.gov is the U.S. government's official web portal to all federal, state and local government web resources and services.